Time;durP1;ratioP1;P1;durP2;ratioP2;P2;SDS_P1;SDS_P2;PMS_P1;PMS_P2;Temp;Humidity;BMP_temperature;BMP_pressure;BME280_temperature;BME280_humidity;BME280_pressure;Samples;Min_cycle;Max_cycle;Signal;HPM_P1;HPM_P2
2022/07/24 00:01:20;;;;;;;22.50;14.38;;;;;;;18.25;92.29;94628.25;1709161;82;21096;-58
2022/07/24 00:03:48;;;;;;;24.57;14.63;;;;;;;18.22;92.32;94625.70;1669541;83;21450;-57
2022/07/24 00:06:16;;;;;;;17.05;13.70;;;;;;;18.19;92.54;94622.52;1703323;82;21221;-57
2022/07/24 00:08:44;;;;;;;19.77;14.75;;;;;;;18.22;92.75;94622.30;1705498;82;21064;-57
2022/07/24 00:11:13;;;;;;;24.40;15.18;;;;;;;18.25;92.46;94617.76;1704557;82;21097;-57
2022/07/24 00:13:41;;;;;;;15.83;13.35;;;;;;;18.24;92.22;94615.59;1704833;82;21551;-57
2022/07/24 00:16:10;;;;;;;22.42;14.00;;;;;;;18.26;92.28;94614.45;1687484;83;21014;-57
2022/07/24 00:18:39;;;;;;;16.60;13.30;;;;;;;18.31;92.07;94607.42;1675297;82;21281;-57
2022/07/24 00:21:07;;;;;;;21.48;14.73;;;;;;;18.35;91.83;94604.54;1687943;83;21051;-57
2022/07/24 00:23:35;;;;;;;18.73;14.53;;;;;;;18.38;91.51;94613.28;1711299;82;21041;-57
2022/07/24 00:26:03;;;;;;;16.87;12.90;;;;;;;18.38;91.47;94602.14;1703432;82;21155;-57
2022/07/24 00:28:32;;;;;;;18.55;13.83;;;;;;;18.44;91.18;94602.91;1706228;82;21769;-57
2022/07/24 00:31:01;;;;;;;23.42;15.70;;;;;;;18.47;90.75;94597.73;1708969;82;21857;-57
2022/07/24 00:33:28;;;;;;;19.92;14.58;;;;;;;18.47;90.62;94601.91;1702575;82;20993;-57
2022/07/24 00:35:56;;;;;;;15.72;12.98;;;;;;;18.49;90.69;94593.80;1678356;83;21410;-56
2022/07/24 00:38:24;;;;;;;16.32;13.13;;;;;;;18.49;90.29;94596.59;1701326;83;20973;-57
2022/07/24 00:40:52;;;;;;;16.82;12.75;;;;;;;18.49;89.96;94591.66;1711242;82;21064;-57
2022/07/24 00:43:21;;;;;;;16.55;12.25;;;;;;;18.48;89.81;94585.97;1696803;82;21090;-56
2022/07/24 00:45:48;;;;;;;23.18;14.25;;;;;;;18.50;89.64;94593.19;1699677;83;21561;-56
2022/07/24 00:48:16;;;;;;;16.00;13.48;;;;;;;18.45;89.89;94600.26;1705099;82;21060;-56
2022/07/24 00:50:45;;;;;;;18.82;13.62;;;;;;;18.43;89.86;94600.00;1701098;82;21060;-57
2022/07/24 00:53:12;;;;;;;19.73;13.93;;;;;;;18.41;89.85;94608.09;1709460;82;21658;-56
2022/07/24 00:55:41;;;;;;;15.83;13.35;;;;;;;18.38;90.30;94607.71;1716188;82;21266;-56
2022/07/24 00:58:10;;;;;;;20.05;14.95;;;;;;;18.36;90.55;94620.61;1713808;82;20950;-56
2022/07/24 01:00:38;;;;;;;18.62;13.95;;;;;;;18.27;90.86;94614.62;1714984;82;20994;-55
2022/07/24 01:03:07;;;;;;;19.75;13.13;;;;;;;18.21;91.27;94615.20;1716416;82;21018;-56
2022/07/24 01:05:35;;;;;;;21.15;13.93;;;;;;;18.16;91.56;94609.60;1712360;83;21003;-56
2022/07/24 01:08:04;;;;;;;20.57;13.93;;;;;;;18.12;91.88;94604.91;1686190;82;21171;-56
2022/07/24 01:10:33;;;;;;;17.32;14.10;;;;;;;18.12;92.44;94609.70;1681899;83;21077;-55
2022/07/24 01:13:02;;;;;;;19.95;13.60;;;;;;;18.13;92.43;94610.60;1713710;83;21046;-55
2022/07/24 01:15:30;;;;;;;23.50;13.08;;;;;;;18.12;92.08;94613.88;1715944;82;21030;-55
2022/07/24 01:18:00;;;;;;;18.55;12.25;;;;;;;18.08;92.03;94601.59;1713018;82;20998;-56
2022/07/24 01:20:28;;;;;;;24.70;13.55;;;;;;;18.08;91.97;94596.65;1686004;83;21814;-56
2022/07/24 01:22:57;;;;;;;21.50;14.47;;;;;;;18.08;91.79;94589.69;1714593;82;20998;-56
2022/07/24 01:25:26;;;;;;;19.65;14.38;;;;;;;18.08;91.90;94585.51;1677693;84;21449;-56
2022/07/24 01:27:55;;;;;;;17.90;12.40;;;;;;;18.13;92.04;94587.69;1634869;84;21537;-55
2022/07/24 01:30:23;;;;;;;15.18;11.90;;;;;;;18.17;91.22;94594.41;1630023;86;21617;-56
2022/07/24 01:32:51;;;;;;;21.60;12.20;;;;;;;18.17;90.75;94583.92;1671880;85;21133;-56
2022/07/24 01:35:19;;;;;;;16.27;13.58;;;;;;;18.17;90.65;94572.78;1675529;83;21022;-56
2022/07/24 01:37:48;;;;;;;28.95;16.67;;;;;;;18.21;90.71;94574.05;1658611;84;21105;-56
2022/07/24 01:40:16;;;;;;;24.57;15.30;;;;;;;18.22;90.80;94565.20;1637950;86;21420;-56
2022/07/24 01:42:45;;;;;;;22.20;15.65;;;;;;;18.21;91.09;94565.08;1716480;82;21018;-56
2022/07/24 01:45:13;;;;;;;16.00;12.73;;;;;;;18.18;90.81;94563.16;1708231;82;21261;-56
2022/07/24 01:47:43;;;;;;;20.52;14.07;;;;;;;18.09;90.88;94562.75;1652229;85;21076;-56
2022/07/24 01:50:12;;;;;;;23.18;15.78;;;;;;;18.02;91.12;94566.64;1677713;84;21037;-56
2022/07/24 01:52:42;;;;;;;24.60;16.17;;;;;;;17.95;91.48;94555.95;1690180;85;21057;-57
2022/07/24 01:55:10;;;;;;;19.77;14.38;;;;;;;17.92;91.76;94561.13;1638728;86;21019;-57
2022/07/24 01:57:38;;;;;;;19.67;14.80;;;;;;;17.90;91.89;94558.09;1674705;84;21345;-57
2022/07/24 02:00:11;;;;;;;17.32;12.63;;;;;;;17.91;91.98;94576.31;1631555;85;21026;-57
2022/07/24 02:02:43;;;;;;;16.27;13.72;;;;;;;17.86;92.17;94604.23;1714978;82;26573;-56
2022/07/24 02:05:12;;;;;;;17.20;12.15;;;;;;;17.81;92.58;94615.36;1715063;82;21021;-56
2022/07/24 02:07:42;;;;;;;14.23;11.53;;;;;;;17.77;92.97;94616.98;1660012;83;21621;-55
2022/07/24 02:10:15;;;;;;;18.85;13.20;;;;;;;17.77;93.07;94615.59;1713663;82;21876;-56
2022/07/24 02:12:45;;;;;;;28.60;15.35;;;;;;;17.79;93.13;94613.71;1711171;82;21521;-56
2022/07/24 02:15:15;;;;;;;19.10;14.63;;;;;;;17.83;93.55;94613.59;1710847;82;21499;-57
2022/07/24 02:17:49;;;;;;;21.20;15.08;;;;;;;17.90;93.37;94604.80;1716664;82;21065;-57
2022/07/24 02:20:20;;;;;;;18.32;13.45;;;;;;;17.99;92.83;94588.52;1685890;83;21006;-58
2022/07/24 02:22:49;;;;;;;18.25;14.53;;;;;;;18.01;92.49;94563.72;1689993;83;21219;-55
2022/07/24 02:25:17;;;;;;;23.62;15.85;;;;;;;18.06;92.42;94565.77;1705258;82;20954;-56
2022/07/24 02:27:45;;;;;;;25.50;16.87;;;;;;;18.08;92.43;94571.59;1692247;83;21069;-56
2022/07/24 02:30:16;;;;;;;22.67;15.95;;;;;;;18.09;92.09;94578.68;1712588;82;21053;-56
2022/07/24 02:32:45;;;;;;;19.15;13.75;;;;;;;18.07;92.04;94570.84;1712497;82;21014;-54
2022/07/24 02:35:16;;;;;;;20.25;14.13;;;;;;;18.08;92.01;94572.37;1682762;83;21032;-55
2022/07/24 02:37:45;;;;;;;18.67;12.88;;;;;;;18.10;91.96;94558.70;1713805;82;21223;-55
2022/07/24 02:40:12;;;;;;;16.50;13.93;;;;;;;18.18;92.04;94561.77;1714760;82;20998;-55
2022/07/24 02:42:41;;;;;;;16.20;12.68;;;;;;;18.18;91.46;94549.38;1712486;83;21030;-56
2022/07/24 02:45:09;;;;;;;20.35;12.68;;;;;;;18.20;91.30;94538.48;1715203;83;21021;-55
2022/07/24 02:47:56;;;;;;;15.85;11.25;;;;;;;18.20;91.38;94534.31;1717851;82;21113;-56
2022/07/24 02:50:27;;;;;;;18.87;12.70;;;;;;;18.23;91.48;94529.13;1687371;83;21018;-56
2022/07/24 02:52:55;;;;;;;21.33;13.68;;;;;;;18.28;91.89;94538.16;1681927;83;21029;-56
2022/07/24 02:55:23;;;;;;;24.27;14.23;;;;;;;18.36;91.94;94557.31;1702125;82;21429;-56
2022/07/24 02:57:51;;;;;;;15.23;13.25;;;;;;;18.36;91.57;94570.47;1676014;84;21080;-56
2022/07/24 03:00:19;;;;;;;22.15;13.78;;;;;;;18.33;91.42;94552.75;1709529;82;21265;-59
2022/07/24 03:02:49;;;;;;;21.07;14.63;;;;;;;18.32;91.42;94540.06;1702415;83;20960;-56
2022/07/24 03:05:18;;;;;;;16.20;14.40;;;;;;;18.33;91.68;94526.29;1713265;83;21033;-55
2022/07/24 03:07:46;;;;;;;20.08;14.73;;;;;;;18.32;91.49;94516.38;1712365;82;21474;-55
2022/07/24 03:10:15;;;;;;;20.10;14.18;;;;;;;18.25;91.47;94519.64;1707132;82;21110;-56
2022/07/24 03:12:43;;;;;;;19.75;12.63;;;;;;;18.19;91.68;94510.52;1674295;83;21262;-56
2022/07/24 03:15:12;;;;;;;17.62;12.78;;;;;;;18.18;92.04;94509.61;1688594;83;21714;-56
2022/07/24 03:17:42;;;;;;;18.62;13.65;;;;;;;18.19;92.25;94506.34;1702362;82;20971;-56
2022/07/24 03:20:11;;;;;;;19.45;15.05;;;;;;;18.22;92.57;94496.97;1670983;83;20992;-55
2022/07/24 03:22:40;;;;;;;17.65;14.10;;;;;;;18.27;92.99;94493.46;1720397;82;21006;-56
2022/07/24 03:25:09;;;;;;;16.02;12.60;;;;;;;18.29;92.58;94489.54;1711389;83;21174;-56
2022/07/24 03:27:37;;;;;;;17.00;13.45;;;;;;;18.30;92.49;94489.67;1716158;82;21065;-55
2022/07/24 03:30:07;;;;;;;19.98;13.88;;;;;;;18.29;92.62;94485.36;1692479;83;21080;-56
2022/07/24 03:32:35;;;;;;;20.88;14.65;;;;;;;18.28;92.73;94493.59;1712854;82;21009;-56
2022/07/24 03:35:04;;;;;;;18.23;13.72;;;;;;;18.27;93.74;94503.21;1713530;82;21030;-57
2022/07/24 03:37:33;;;;;;;23.45;13.70;;;;;;;18.22;93.71;94499.76;1691785;83;21198;-55
2022/07/24 03:40:01;;;;;;;17.65;13.90;;;;;;;18.20;93.79;94501.52;1699839;83;20962;-56
2022/07/24 03:42:31;;;;;;;18.30;14.47;;;;;;;18.21;93.67;94505.81;1666471;84;20982;-55
2022/07/24 03:45:00;;;;;;;19.15;15.05;;;;;;;18.20;93.85;94501.52;1710845;82;21462;-58
2022/07/24 03:47:29;;;;;;;21.23;15.00;;;;;;;18.19;93.57;94504.17;1712107;82;20955;-56
2022/07/24 03:49:58;;;;;;;19.55;14.38;;;;;;;18.18;93.45;94502.03;1715073;82;21771;-57
2022/07/24 03:52:25;;;;;;;22.15;15.10;;;;;;;18.20;93.54;94509.25;1713221;83;21154;-55
2022/07/24 03:54:55;;;;;;;21.40;15.00;;;;;;;18.26;93.19;94509.27;1707269;82;21198;-56
2022/07/24 03:57:23;;;;;;;21.75;15.40;;;;;;;18.31;93.15;94506.51;1703873;83;21045;-56
2022/07/24 03:59:51;;;;;;;17.25;14.25;;;;;;;18.39;93.01;94510.34;1706480;82;21064;-55
2022/07/24 04:02:20;;;;;;;17.77;12.98;;;;;;;18.46;92.60;94516.80;1704098;82;21759;-57
2022/07/24 04:04:49;;;;;;;18.37;14.15;;;;;;;18.53;92.11;94514.16;1692117;83;21093;-58
2022/07/24 04:07:18;;;;;;;20.27;13.90;;;;;;;18.59;92.32;94511.52;1681174;84;21038;-56
2022/07/24 04:09:46;;;;;;;24.10;14.75;;;;;;;18.66;91.71;94510.27;1701535;82;20984;-57
2022/07/24 04:12:16;;;;;;;18.82;15.13;;;;;;;18.66;91.57;94513.05;1708689;82;20996;-57
2022/07/24 04:14:44;;;;;;;22.13;13.80;;;;;;;18.67;91.51;94511.14;1713355;83;21783;-57
2022/07/24 04:17:14;;;;;;;17.90;14.25;;;;;;;18.73;91.40;94512.55;1712400;83;21062;-56
2022/07/24 04:19:42;;;;;;;18.73;14.80;;;;;;;18.80;90.82;94509.27;1713397;82;20977;-56
2022/07/24 04:22:11;;;;;;;19.65;14.03;;;;;;;18.82;90.69;94514.45;1716957;82;21169;-55
2022/07/24 04:24:40;;;;;;;17.70;13.70;;;;;;;18.83;90.57;94514.58;1677333;83;21568;-55
2022/07/24 04:27:07;;;;;;;16.17;12.50;;;;;;;18.81;90.25;94513.58;1719471;82;21249;-55
2022/07/24 04:29:36;;;;;;;16.45;11.63;;;;;;;18.81;89.99;94526.13;1709582;82;20962;-56
2022/07/24 04:32:05;;;;;;;21.40;14.45;;;;;;;18.80;89.99;94519.78;1713094;82;21047;-55
2022/07/24 04:34:33;;;;;;;20.45;15.05;;;;;;;18.83;90.07;94525.73;1716151;82;21446;-56
2022/07/24 04:37:02;;;;;;;16.37;13.48;;;;;;;18.90;89.72;94521.06;1710879;82;21513;-56
2022/07/24 04:39:30;;;;;;;19.27;13.85;;;;;;;18.95;89.41;94520.92;1702480;83;21878;-56
2022/07/24 04:41:59;;;;;;;14.70;12.10;;;;;;;18.99;89.55;94523.59;1676254;83;21008;-57
2022/07/24 04:44:27;;;;;;;21.73;14.35;;;;;;;19.20;89.29;94523.48;1712567;82;21072;-56
2022/07/24 04:46:55;;;;;;;14.50;12.98;;;;;;;19.44;88.11;94522.34;1708364;83;21549;-57
2022/07/24 04:49:24;;;;;;;15.98;13.50;;;;;;;19.66;87.05;94524.31;1709133;82;21019;-56
2022/07/24 04:51:52;;;;;;;19.02;13.78;;;;;;;19.79;85.86;94525.94;1721778;83;21154;-56
2022/07/24 04:54:22;;;;;;;14.55;12.10;;;;;;;19.86;85.16;94524.00;1705761;82;21578;-56
2022/07/24 04:56:52;;;;;;;15.23;12.85;;;;;;;19.93;84.31;94528.42;1706219;82;21528;-56
2022/07/24 04:59:20;;;;;;;17.10;12.82;;;;;;;19.98;84.01;94530.45;1710830;82;21081;-56
2022/07/24 05:01:48;;;;;;;20.60;13.20;;;;;;;20.03;83.95;94527.53;1716266;82;21071;-57
2022/07/24 05:04:16;;;;;;;19.52;12.93;;;;;;;20.09;83.84;94533.22;1679150;84;21300;-56
2022/07/24 05:06:46;;;;;;;15.72;12.13;;;;;;;20.19;83.61;94527.48;1711630;83;21009;-56
2022/07/24 05:09:14;;;;;;;13.90;11.80;;;;;;;20.31;83.12;94526.91;1671744;83;21133;-57
2022/07/24 05:11:43;;;;;;;22.52;13.95;;;;;;;20.42;82.47;94530.29;1712026;83;21083;-56
2022/07/24 05:14:10;;;;;;;13.75;12.30;;;;;;;20.44;82.14;94529.91;1707375;82;21422;-56
2022/07/24 05:16:39;;;;;;;18.48;12.30;;;;;;;20.48;81.75;94528.22;1710763;82;21258;-56
2022/07/24 05:19:09;;;;;;;13.85;11.55;;;;;;;20.51;81.82;94520.19;1712374;82;21427;-57
2022/07/24 05:21:37;;;;;;;15.30;11.60;;;;;;;20.58;81.81;94525.25;1706073;82;20958;-58
2022/07/24 05:24:07;;;;;;;15.63;11.83;;;;;;;20.69;81.45;94532.16;1708251;82;21048;-56
2022/07/24 05:26:36;;;;;;;19.85;13.70;;;;;;;20.79;81.20;94530.58;1706325;82;21005;-56
2022/07/24 05:29:09;;;;;;;17.15;12.03;;;;;;;20.90;80.94;94540.34;1708854;83;21265;-56
2022/07/24 05:31:35;;;;;;;13.90;11.95;;;;;;;21.05;80.62;94538.69;1716698;82;21096;-56
2022/07/24 05:34:03;;;;;;;16.57;11.95;;;;;;;21.19;80.01;94527.78;1709739;82;21119;-57
2022/07/24 05:36:31;;;;;;;21.17;11.45;;;;;;;21.29;79.11;94531.01;1718890;82;21052;-56
2022/07/24 05:38:59;;;;;;;13.30;11.83;;;;;;;21.36;78.49;94529.80;1712320;82;20947;-56
2022/07/24 05:41:28;;;;;;;14.55;11.55;;;;;;;21.41;77.95;94529.61;1705629;82;21139;-57
2022/07/24 05:43:56;;;;;;;15.00;11.00;;;;;;;21.48;77.33;94527.66;1704547;82;21306;-56
2022/07/24 05:46:24;;;;;;;12.93;11.35;;;;;;;21.53;76.92;94525.44;1683719;82;21561;-56
2022/07/24 05:48:53;;;;;;;17.20;12.05;;;;;;;21.61;76.62;94517.97;1705032;82;21060;-56
2022/07/24 05:51:22;;;;;;;15.80;10.90;;;;;;;21.71;76.07;94512.95;1713676;83;21013;-57
2022/07/24 05:53:50;;;;;;;13.20;10.55;;;;;;;21.83;75.40;94513.59;1712369;82;21818;-56
2022/07/24 05:56:17;;;;;;;16.50;10.60;;;;;;;21.92;74.71;94509.02;1686166;83;20959;-56
2022/07/24 05:58:45;;;;;;;12.65;11.30;;;;;;;22.01;73.90;94514.28;1714661;82;21022;-56
2022/07/24 06:01:15;;;;;;;15.15;10.75;;;;;;;22.07;73.47;94508.08;1717161;83;21167;-56
2022/07/24 06:03:43;;;;;;;14.38;10.03;;;;;;;22.16;73.38;94511.16;1706489;82;21107;-57
2022/07/24 06:06:11;;;;;;;15.60;10.43;;;;;;;22.27;73.12;94513.18;1702374;82;21324;-56
2022/07/24 06:08:39;;;;;;;15.72;10.43;;;;;;;22.37;72.34;94515.75;1679170;83;21050;-56
2022/07/24 06:11:09;;;;;;;13.55;9.85;;;;;;;22.44;72.00;94515.82;1703505;82;21438;-57
2022/07/24 06:13:38;;;;;;;14.10;9.88;;;;;;;22.53;71.38;94516.83;1697952;82;21027;-56
2022/07/24 06:16:07;;;;;;;14.03;9.45;;;;;;;22.59;70.23;94518.28;1693162;83;21612;-57
2022/07/24 06:18:35;;;;;;;10.90;9.58;;;;;;;22.64;69.58;94511.09;1679483;83;21313;-56
2022/07/24 06:21:03;;;;;;;15.00;9.68;;;;;;;22.69;69.07;94517.25;1712923;82;21399;-56
2022/07/24 06:23:32;;;;;;;10.82;9.18;;;;;;;22.74;69.02;94513.61;1702080;82;21082;-57
2022/07/24 06:26:00;;;;;;;10.75;9.50;;;;;;;22.77;68.42;94516.12;1698717;82;21100;-57
2022/07/24 06:28:30;;;;;;;12.85;9.50;;;;;;;22.79;67.88;94517.74;1716967;82;21235;-57
2022/07/24 06:30:59;;;;;;;11.15;9.65;;;;;;;22.82;67.87;94511.06;1705442;83;21232;-58
2022/07/24 06:33:27;;;;;;;14.60;9.65;;;;;;;22.91;67.67;94516.30;1680062;83;20895;-56
2022/07/24 06:35:56;;;;;;;12.03;9.68;;;;;;;22.99;67.43;94508.02;1718374;82;21579;-58
2022/07/24 06:38:25;;;;;;;12.25;9.88;;;;;;;23.07;66.95;94513.89;1704805;82;21026;-59
2022/07/24 06:40:55;;;;;;;12.63;10.35;;;;;;;23.14;66.88;94509.08;1717706;82;21056;-57
2022/07/24 06:43:23;;;;;;;11.85;9.78;;;;;;;23.24;66.74;94505.22;1677407;83;21349;-57
2022/07/24 06:45:52;;;;;;;11.15;8.95;;;;;;;23.32;66.41;94509.67;1690519;83;21120;-57
2022/07/24 06:48:20;;;;;;;16.55;8.08;;;;;;;23.38;66.42;94504.72;1717302;82;20986;-58
2022/07/24 06:50:48;;;;;;;13.93;9.08;;;;;;;23.44;66.00;94506.80;1668670;83;21461;-57
2022/07/24 06:53:16;;;;;;;12.28;9.85;;;;;;;23.55;64.94;94506.59;1713390;82;21079;-59
2022/07/24 06:55:45;;;;;;;17.85;9.05;;;;;;;23.65;64.58;94497.87;1712746;82;21776;-57
2022/07/24 06:58:13;;;;;;;11.68;8.10;;;;;;;23.74;64.57;94497.44;1711915;82;21082;-57
2022/07/24 07:00:42;;;;;;;12.88;7.58;;;;;;;23.85;62.88;94495.87;1710001;82;20962;-57
2022/07/24 07:03:10;;;;;;;11.50;7.72;;;;;;;23.97;62.24;94500.63;1685668;83;21037;-58
2022/07/24 07:05:39;;;;;;;10.48;8.23;;;;;;;24.08;62.41;94506.79;1715372;83;21087;-59
2022/07/24 07:08:07;;;;;;;9.73;7.80;;;;;;;24.15;62.01;94502.69;1675401;85;21886;-57
2022/07/24 07:10:36;;;;;;;9.80;8.10;;;;;;;24.23;62.07;94495.77;1653456;84;21129;-57
2022/07/24 07:13:05;;;;;;;11.88;8.23;;;;;;;24.33;62.22;94496.18;1697660;82;21081;-58
2022/07/24 07:15:33;;;;;;;9.95;8.23;;;;;;;24.47;62.32;94498.31;1715249;82;21081;-57
2022/07/24 07:18:09;;;;;;;10.60;8.65;;;;;;;24.67;62.48;94500.47;1714713;82;21466;-57
2022/07/24 07:20:39;;;;;;;9.45;7.83;;;;;;;24.91;61.50;94501.61;1704975;83;21117;-56
2022/07/24 07:23:07;;;;;;;11.38;8.03;;;;;;;25.10;61.49;94505.00;1675815;84;21426;-58
2022/07/24 07:25:35;;;;;;;9.93;7.45;;;;;;;25.23;60.13;94495.88;1713334;82;21037;-57
2022/07/24 07:28:04;;;;;;;11.08;8.03;;;;;;;25.28;59.32;94494.97;1712805;82;21069;-57
2022/07/24 07:30:32;;;;;;;8.70;7.33;;;;;;;25.32;60.01;94497.45;1714699;81;21000;-57
2022/07/24 07:33:02;;;;;;;10.45;7.80;;;;;;;25.37;59.76;94499.38;1709899;83;21134;-57
2022/07/24 07:35:31;;;;;;;14.75;7.35;;;;;;;25.41;59.30;94496.97;1649742;84;21017;-56
2022/07/24 07:37:59;;;;;;;9.08;7.03;;;;;;;25.51;59.45;94493.78;1676077;85;20975;-56
2022/07/24 07:40:27;;;;;;;8.70;7.35;;;;;;;25.64;58.27;94492.30;1676110;84;21084;-56
2022/07/24 07:42:55;;;;;;;10.13;7.78;;;;;;;25.80;57.63;94491.09;1670749;84;21083;-57
2022/07/24 07:45:24;;;;;;;6.15;5.55;;;;;;;25.90;58.42;94491.50;1637579;85;21507;-58
2022/07/24 07:47:52;;;;;;;4.97;4.47;;;;;;;26.01;56.87;94489.78;1671126;84;21010;-58
2022/07/24 07:50:22;;;;;;;5.90;4.85;;;;;;;26.10;56.33;94495.67;1717043;82;21061;-56
2022/07/24 07:52:50;;;;;;;7.28;5.22;;;;;;;26.15;54.99;94498.98;1713709;82;21013;-56
2022/07/24 07:55:19;;;;;;;6.00;4.62;;;;;;;26.20;55.51;94502.97;1721777;82;20958;-57
2022/07/24 07:57:47;;;;;;;5.70;4.70;;;;;;;26.31;55.29;94497.02;1689128;83;21560;-56
2022/07/24 08:00:18;;;;;;;5.15;4.42;;;;;;;26.42;55.25;94503.74;1704940;82;21194;-57
2022/07/24 08:02:46;;;;;;;5.00;4.47;;;;;;;26.54;54.51;94509.98;1706336;82;21000;-57
2022/07/24 08:05:14;;;;;;;4.65;4.25;;;;;;;26.67;54.05;94507.67;1710051;82;20971;-57
2022/07/24 08:07:42;;;;;;;4.25;3.85;;;;;;;26.78;53.15;94515.16;1713959;82;21123;-59
2022/07/24 08:10:10;;;;;;;6.28;4.05;;;;;;;26.86;52.19;94508.88;1680491;83;21907;-56
2022/07/24 08:12:39;;;;;;;6.40;4.28;;;;;;;26.92;52.71;94510.89;1717526;82;21025;-57
2022/07/24 08:15:10;;;;;;;5.03;4.28;;;;;;;27.02;53.06;94507.61;1685236;83;21044;-56
2022/07/24 08:17:40;;;;;;;6.53;3.80;;;;;;;27.10;52.81;94516.91;1688987;83;21017;-57
2022/07/24 08:20:09;;;;;;;5.25;3.70;;;;;;;27.27;52.84;94509.31;1713976;82;21021;-57
2022/07/24 08:22:38;;;;;;;4.58;4.15;;;;;;;27.39;53.61;94511.89;1710258;82;20962;-56
2022/07/24 08:25:06;;;;;;;4.25;3.85;;;;;;;27.48;52.22;94510.67;1712723;82;21097;-56
2022/07/24 08:27:39;;;;;;;5.20;4.30;;;;;;;27.57;52.57;94510.78;1714675;82;21013;-57
2022/07/24 08:30:08;;;;;;;7.40;4.28;;;;;;;27.64;51.95;94510.02;1676518;84;20983;-57
2022/07/24 08:32:37;;;;;;;4.53;4.08;;;;;;;27.65;52.38;94509.47;1666924;84;21014;-58
2022/07/24 08:35:06;;;;;;;5.70;3.33;;;;;;;27.65;51.73;94509.47;1680910;84;21189;-58
2022/07/24 08:37:38;;;;;;;4.37;3.22;;;;;;;27.63;52.16;94511.34;1642561;84;21055;-57
2022/07/24 08:40:07;;;;;;;9.30;3.60;;;;;;;27.67;52.10;94518.78;1670039;84;21461;-57
2022/07/24 08:42:37;;;;;;;6.25;4.42;;;;;;;27.69;52.93;94533.11;1638083;85;20974;-57
2022/07/24 08:45:07;;;;;;;5.05;4.55;;;;;;;27.80;52.80;94530.69;1655929;84;21109;-57
2022/07/24 08:47:37;;;;;;;4.25;3.85;;;;;;;27.95;51.58;94532.11;1679196;84;21141;-57
2022/07/24 08:50:05;;;;;;;5.90;4.10;;;;;;;28.04;50.38;94531.56;1668610;84;21018;-56
2022/07/24 08:52:35;;;;;;;5.30;4.30;;;;;;;27.97;51.15;94539.38;1684157;84;21033;-57
2022/07/24 08:55:03;;;;;;;5.97;4.83;;;;;;;27.87;51.04;94546.92;1668854;83;21037;-57
2022/07/24 08:57:32;;;;;;;6.53;4.60;;;;;;;27.87;51.27;94540.50;1702629;82;21108;-56
2022/07/24 09:00:00;;;;;;;6.58;5.85;;;;;;;27.91;50.82;94535.25;1691720;82;21178;-57
2022/07/24 09:02:29;;;;;;;27.58;23.40;;;;;;;27.89;50.58;94542.19;1671542;84;21199;-57
2022/07/24 09:05:01;;;;;;;13.20;11.70;;;;;;;27.85;50.79;94552.40;1626342;86;21146;-58
2022/07/24 09:07:30;;;;;;;6.53;5.37;;;;;;;27.73;51.42;94542.02;1619959;87;21060;-58
2022/07/24 09:10:06;;;;;;;6.70;5.50;;;;;;;27.59;51.93;94543.48;1595965;88;21047;-57
2022/07/24 09:12:38;;;;;;;7.28;5.70;;;;;;;27.42;51.52;94542.58;1627071;87;21548;-56
2022/07/24 09:15:19;;;;;;;;;;;;;;;27.21;51.82;94544.80;1620162;87;21107;-60
2022/07/24 09:17:55;;;;;;;7.50;6.50;;;;;;;27.06;52.06;94564.48;1626640;86;20158;-57
2022/07/24 09:20:27;;;;;;;8.73;6.78;;;;;;;26.81;52.72;94564.86;1596277;87;21111;-57
2022/07/24 09:22:59;;;;;;;11.13;7.57;;;;;;;26.48;53.41;94563.66;1650023;86;21076;-55
2022/07/24 09:25:28;;;;;;;11.18;7.10;;;;;;;26.11;54.28;94574.73;1652738;85;21118;-59
2022/07/24 09:28:04;;;;;;;7.45;6.47;;;;;;;25.78;55.16;94581.86;1609480;87;20993;-56
2022/07/24 09:30:38;;;;;;;8.18;6.87;;;;;;;25.55;55.93;94582.95;1612324;87;21084;-57
2022/07/24 09:33:15;;;;;;;11.03;6.58;;;;;;;25.35;56.30;94570.37;1600781;87;20990;-57
2022/07/24 09:35:48;;;;;;;7.40;6.70;;;;;;;25.18;56.65;94588.30;1606358;87;21533;-60
2022/07/24 09:38:18;;;;;;;6.85;6.15;;;;;;;24.99;56.85;94582.67;1611276;87;21173;-57
2022/07/24 09:40:54;;;;;;;9.33;7.33;;;;;;;24.82;57.61;94592.13;1613369;87;21022;-57
2022/07/24 09:43:29;;;;;;;7.80;6.58;;;;;;;24.72;58.06;94586.19;1615065;88;21086;-56
2022/07/24 09:46:08;;;;;;;10.05;7.37;;;;;;;24.65;58.84;94588.26;1602071;87;21022;-56
2022/07/24 09:48:43;;;;;;;9.38;6.22;;;;;;;24.60;59.19;94579.92;1610980;87;21232;-58
2022/07/24 09:51:15;;;;;;;9.80;7.75;;;;;;;24.58;59.33;94579.05;1604353;87;21284;-57
2022/07/24 09:53:46;;;;;;;11.33;6.83;;;;;;;24.59;59.84;94576.34;1613181;87;21156;-57
2022/07/24 09:56:16;;;;;;;10.50;6.25;;;;;;;24.59;59.96;94574.19;1611671;88;21003;-57
2022/07/24 09:58:56;;;;;;;8.08;6.85;;;;;;;24.65;59.95;94579.05;1609328;87;21110;-57
2022/07/24 10:01:26;;;;;;;7.70;7.00;;;;;;;24.74;59.60;94588.47;1625719;87;21521;-58
2022/07/24 10:04:00;;;;;;;8.28;7.10;;;;;;;24.92;59.58;94597.42;1608103;87;21828;-57
2022/07/24 10:06:26;;;;;;;8.40;6.65;;;;;;;25.17;58.55;94600.06;1614912;88;21030;-57
2022/07/24 10:08:55;;;;;;;7.00;6.40;;;;;;;25.38;58.21;94605.89;1601219;88;21062;-58
2022/07/24 10:11:23;;;;;;;7.17;6.47;;;;;;;25.51;57.51;94595.22;1639778;86;21156;-57
2022/07/24 10:13:51;;;;;;;8.58;6.40;;;;;;;25.55;57.35;94596.39;1634944;85;21419;-57
2022/07/24 10:16:30;;;;;;;8.63;7.58;;;;;;;25.47;59.48;94601.84;1623627;86;21271;-57
2022/07/24 10:19:01;;;;;;;7.85;6.55;;;;;;;25.29;60.45;94608.41;1622908;86;21073;-56
2022/07/24 10:21:37;;;;;;;8.90;7.70;;;;;;;25.08;60.63;94599.13;1615067;86;21085;-56
2022/07/24 10:24:12;;;;;;;8.00;6.75;;;;;;;24.85;61.90;94593.84;1629490;86;21138;-58
2022/07/24 10:26:51;;;;;;;9.00;7.53;;;;;;;24.68;62.32;94599.06;1645280;86;21026;-57
2022/07/24 10:29:22;;;;;;;9.95;8.10;;;;;;;24.53;62.68;94591.17;1631961;86;21237;-57
2022/07/24 10:31:54;;;;;;;8.40;6.87;;;;;;;24.39;63.17;94597.33;1608740;87;21036;-57
2022/07/24 10:34:39;;;;;;;8.73;7.90;;;;;;;24.27;63.11;94601.64;1636588;85;21247;-57
2022/07/24 10:37:35;;;;;;;8.53;7.17;;;;;;;24.18;63.49;94602.07;1679662;84;20997;-56
2022/07/24 10:40:17;;;;;;;8.83;7.00;;;;;;;24.07;63.60;94599.45;1659161;85;21054;-57
2022/07/24 10:43:13;;;;;;;9.70;6.85;;;;;;;24.02;63.34;94601.72;1655191;86;21388;-60
2022/07/24 10:45:53;;;;;;;7.30;6.60;;;;;;;24.02;64.21;94594.69;1664428;85;21549;-57
2022/07/24 10:48:27;;;;;;;9.33;7.03;;;;;;;24.03;63.03;94590.59;1654779;85;20983;-59
2022/07/24 10:51:03;;;;;;;8.58;7.53;;;;;;;24.10;62.79;94588.53;1660215;85;21031;-58
2022/07/24 10:53:44;;;;;;;8.35;7.47;;;;;;;24.19;62.61;94587.45;1652182;86;20988;-57
2022/07/24 10:56:38;;;;;;;8.73;7.30;;;;;;;24.38;62.98;94583.89;1655335;85;21142;-58
2022/07/24 10:59:09;;;;;;;10.93;7.22;;;;;;;24.50;61.70;94584.44;1655734;85;21602;-58
2022/07/24 11:01:54;;;;;;;11.35;7.95;;;;;;;24.61;61.66;94585.66;1657792;85;21159;-56
2022/07/24 11:04:24;;;;;;;10.00;7.65;;;;;;;24.67;61.42;94589.87;1659714;85;21622;-57
2022/07/24 11:06:58;;;;;;;7.65;6.83;;;;;;;24.71;60.89;94597.97;1651694;85;21054;-58
2022/07/24 11:09:28;;;;;;;8.05;7.20;;;;;;;24.70;60.86;94599.27;1660525;85;20971;-56
2022/07/24 11:12:00;;;;;;;8.80;7.90;;;;;;;24.67;60.38;94605.98;1620901;84;21169;-57
2022/07/24 11:14:48;;;;;;;12.95;11.70;;;;;;;24.61;62.59;94592.69;1655121;85;21254;-58
2022/07/24 11:17:43;;;;;;;18.50;16.60;;;;;;;24.49;64.11;94602.61;1657233;85;21511;-57
2022/07/24 11:20:13;;;;;;;9.80;8.13;;;;;;;24.38;64.64;94611.28;1669382;83;21503;-57
2022/07/24 11:22:54;;;;;;;12.70;6.83;;;;;;;24.24;63.29;94604.13;1675227;84;22001;-57
2022/07/24 11:25:24;;;;;;;9.18;8.03;;;;;;;24.09;62.78;94604.66;1673070;84;21045;-56
2022/07/24 11:28:01;;;;;;;8.78;7.42;;;;;;;23.99;63.56;94598.59;1636045;85;21089;-56
2022/07/24 11:30:29;;;;;;;7.80;6.92;;;;;;;23.93;63.79;94593.69;1669494;84;21079;-58
2022/07/24 11:33:00;;;;;;;9.43;6.97;;;;;;;23.90;64.27;94597.58;1691927;83;20985;-57
2022/07/24 11:35:36;;;;;;;9.85;6.75;;;;;;;23.90;64.03;94605.27;1706471;82;21240;-58
2022/07/24 11:38:07;;;;;;;8.33;7.30;;;;;;;23.86;64.33;94599.95;1695220;82;21227;-57